sensor_id;sensor_type;location;lat;lon;timestamp;P1;durP1;ratioP1;P2;durP2;ratioP2
1358;SDS011;673;48.098;14.422;2023-08-06T00:01:05;6.30;;;5.70;;
1358;SDS011;673;48.098;14.422;2023-08-06T00:03:32;5.90;;;5.40;;
1358;SDS011;673;48.098;14.422;2023-08-06T00:05:59;6.43;;;5.60;;
1358;SDS011;673;48.098;14.422;2023-08-06T00:08:26;5.93;;;5.43;;
1358;SDS011;673;48.098;14.422;2023-08-06T00:10:53;7.67;;;6.87;;
1358;SDS011;673;48.098;14.422;2023-08-06T00:13:20;8.77;;;6.63;;
1358;SDS011;673;48.098;14.422;2023-08-06T00:15:48;5.90;;;5.30;;
1358;SDS011;673;48.098;14.422;2023-08-06T00:18:15;5.37;;;4.93;;
1358;SDS011;673;48.098;14.422;2023-08-06T00:20:42;7.17;;;6.40;;
1358;SDS011;673;48.098;14.422;2023-08-06T00:23:09;5.43;;;4.97;;
1358;SDS011;673;48.098;14.422;2023-08-06T00:25:36;5.83;;;5.37;;
1358;SDS011;673;48.098;14.422;2023-08-06T00:28:03;5.63;;;5.13;;
1358;SDS011;673;48.098;14.422;2023-08-06T00:30:31;6.90;;;6.37;;
1358;SDS011;673;48.098;14.422;2023-08-06T00:32:59;6.47;;;5.50;;
1358;SDS011;673;48.098;14.422;2023-08-06T00:35:26;6.77;;;4.80;;
1358;SDS011;673;48.098;14.422;2023-08-06T00:37:53;6.00;;;5.47;;
1358;SDS011;673;48.098;14.422;2023-08-06T00:40:20;6.93;;;6.10;;
1358;SDS011;673;48.098;14.422;2023-08-06T00:42:48;5.30;;;4.80;;
1358;SDS011;673;48.098;14.422;2023-08-06T00:45:15;4.93;;;4.53;;
1358;SDS011;673;48.098;14.422;2023-08-06T00:47:42;5.73;;;5.23;;
1358;SDS011;673;48.098;14.422;2023-08-06T00:50:10;5.80;;;5.27;;
1358;SDS011;673;48.098;14.422;2023-08-06T00:52:37;5.10;;;4.70;;
1358;SDS011;673;48.098;14.422;2023-08-06T00:55:04;5.40;;;4.90;;
1358;SDS011;673;48.098;14.422;2023-08-06T00:57:33;6.20;;;5.60;;
1358;SDS011;673;48.098;14.422;2023-08-06T01:00:00;6.30;;;5.70;;
1358;SDS011;673;48.098;14.422;2023-08-06T01:02:29;5.83;;;4.87;;
1358;SDS011;673;48.098;14.422;2023-08-06T01:04:56;4.27;;;3.97;;
1358;SDS011;673;48.098;14.422;2023-08-06T01:07:29;5.27;;;4.90;;
1358;SDS011;673;48.098;14.422;2023-08-06T01:10:15;4.90;;;4.40;;
1358;SDS011;673;48.098;14.422;2023-08-06T01:12:52;5.63;;;4.53;;
1358;SDS011;673;48.098;14.422;2023-08-06T01:15:29;4.40;;;4.00;;
1358;SDS011;673;48.098;14.422;2023-08-06T01:17:59;4.63;;;4.23;;
1358;SDS011;673;48.098;14.422;2023-08-06T01:20:29;5.03;;;4.63;;
1358;SDS011;673;48.098;14.422;2023-08-06T01:22:56;3.97;;;3.67;;
1358;SDS011;673;48.098;14.422;2023-08-06T01:25:24;5.10;;;4.70;;
1358;SDS011;673;48.098;14.422;2023-08-06T01:27:56;4.03;;;3.73;;
1358;SDS011;673;48.098;14.422;2023-08-06T01:30:29;3.20;;;3.00;;
1358;SDS011;673;48.098;14.422;2023-08-06T01:33:01;4.53;;;4.23;;
1358;SDS011;673;48.098;14.422;2023-08-06T01:35:32;4.80;;;4.40;;
1358;SDS011;673;48.098;14.422;2023-08-06T01:38:01;5.13;;;4.10;;
1358;SDS011;673;48.098;14.422;2023-08-06T01:40:29;4.63;;;4.23;;
1358;SDS011;673;48.098;14.422;2023-08-06T01:42:57;4.37;;;3.97;;
1358;SDS011;673;48.098;14.422;2023-08-06T01:45:24;4.90;;;4.50;;
1358;SDS011;673;48.098;14.422;2023-08-06T01:47:50;5.13;;;4.73;;
1358;SDS011;673;48.098;14.422;2023-08-06T01:50:17;5.50;;;5.03;;
1358;SDS011;673;48.098;14.422;2023-08-06T01:52:46;4.73;;;4.40;;
1358;SDS011;673;48.098;14.422;2023-08-06T01:55:13;4.30;;;4.00;;
1358;SDS011;673;48.098;14.422;2023-08-06T01:57:40;6.43;;;6.00;;
1358;SDS011;673;48.098;14.422;2023-08-06T02:00:07;3.30;;;3.00;;
1358;SDS011;673;48.098;14.422;2023-08-06T02:02:34;5.40;;;4.57;;
1358;SDS011;673;48.098;14.422;2023-08-06T02:05:01;4.57;;;4.27;;
1358;SDS011;673;48.098;14.422;2023-08-06T02:07:29;4.20;;;3.83;;
1358;SDS011;673;48.098;14.422;2023-08-06T02:09:57;4.40;;;4.00;;
1358;SDS011;673;48.098;14.422;2023-08-06T02:12:24;5.23;;;4.23;;
1358;SDS011;673;48.098;14.422;2023-08-06T02:14:51;4.10;;;3.80;;
1358;SDS011;673;48.098;14.422;2023-08-06T02:17:18;3.73;;;3.43;;
1358;SDS011;673;48.098;14.422;2023-08-06T02:19:44;4.33;;;4.03;;
1358;SDS011;673;48.098;14.422;2023-08-06T02:22:11;3.90;;;3.60;;
1358;SDS011;673;48.098;14.422;2023-08-06T02:24:38;4.13;;;3.87;;
1358;SDS011;673;48.098;14.422;2023-08-06T02:27:07;3.43;;;3.23;;
1358;SDS011;673;48.098;14.422;2023-08-06T02:29:34;5.03;;;3.30;;
1358;SDS011;673;48.098;14.422;2023-08-06T02:32:00;4.20;;;3.63;;
1358;SDS011;673;48.098;14.422;2023-08-06T02:34:27;3.17;;;2.97;;
1358;SDS011;673;48.098;14.422;2023-08-06T02:36:54;4.13;;;3.83;;
1358;SDS011;673;48.098;14.422;2023-08-06T02:39:21;5.83;;;4.83;;
1358;SDS011;673;48.098;14.422;2023-08-06T02:41:48;3.17;;;2.97;;
1358;SDS011;673;48.098;14.422;2023-08-06T02:44:17;3.27;;;3.03;;
1358;SDS011;673;48.098;14.422;2023-08-06T02:46:44;5.40;;;4.90;;
1358;SDS011;673;48.098;14.422;2023-08-06T02:49:11;5.43;;;5.00;;
1358;SDS011;673;48.098;14.422;2023-08-06T02:51:37;5.23;;;4.83;;
1358;SDS011;673;48.098;14.422;2023-08-06T02:54:04;5.70;;;5.20;;
1358;SDS011;673;48.098;14.422;2023-08-06T02:56:31;5.10;;;4.70;;
1358;SDS011;673;48.098;14.422;2023-08-06T02:58:58;5.30;;;4.80;;
1358;SDS011;673;48.098;14.422;2023-08-06T03:01:27;5.93;;;5.43;;
1358;SDS011;673;48.098;14.422;2023-08-06T03:03:54;6.73;;;6.13;;
1358;SDS011;673;48.098;14.422;2023-08-06T03:06:21;6.33;;;5.83;;
1358;SDS011;673;48.098;14.422;2023-08-06T03:08:48;6.13;;;5.50;;
1358;SDS011;673;48.098;14.422;2023-08-06T03:11:15;6.37;;;5.73;;
1358;SDS011;673;48.098;14.422;2023-08-06T03:13:42;6.50;;;5.77;;
1358;SDS011;673;48.098;14.422;2023-08-06T03:16:08;6.23;;;5.73;;
1358;SDS011;673;48.098;14.422;2023-08-06T03:18:37;7.63;;;6.60;;
1358;SDS011;673;48.098;14.422;2023-08-06T03:21:04;7.10;;;6.50;;
1358;SDS011;673;48.098;14.422;2023-08-06T03:23:31;9.57;;;8.77;;
1358;SDS011;673;48.098;14.422;2023-08-06T03:26:00;6.83;;;6.23;;
1358;SDS011;673;48.098;14.422;2023-08-06T03:28:27;7.70;;;6.83;;
1358;SDS011;673;48.098;14.422;2023-08-06T03:31:01;8.00;;;7.30;;
1358;SDS011;673;48.098;14.422;2023-08-06T03:33:28;11.37;;;10.20;;
1358;SDS011;673;48.098;14.422;2023-08-06T03:35:57;8.57;;;6.83;;
1358;SDS011;673;48.098;14.422;2023-08-06T03:38:24;6.50;;;5.90;;
1358;SDS011;673;48.098;14.422;2023-08-06T03:40:51;7.67;;;4.50;;
1358;SDS011;673;48.098;14.422;2023-08-06T03:43:18;4.03;;;3.63;;
1358;SDS011;673;48.098;14.422;2023-08-06T03:45:45;4.00;;;3.73;;
1358;SDS011;673;48.098;14.422;2023-08-06T03:48:12;5.40;;;5.00;;
1358;SDS011;673;48.098;14.422;2023-08-06T03:50:38;5.40;;;4.90;;
1358;SDS011;673;48.098;14.422;2023-08-06T03:53:07;4.50;;;4.17;;
1358;SDS011;673;48.098;14.422;2023-08-06T03:55:34;4.60;;;4.20;;
1358;SDS011;673;48.098;14.422;2023-08-06T03:58:01;4.40;;;3.50;;
1358;SDS011;673;48.098;14.422;2023-08-06T04:00:28;3.30;;;3.00;;
1358;SDS011;673;48.098;14.422;2023-08-06T04:02:55;4.53;;;4.10;;
1358;SDS011;673;48.098;14.422;2023-08-06T04:05:22;3.77;;;3.47;;
1358;SDS011;673;48.098;14.422;2023-08-06T04:07:49;2.80;;;2.60;;
1358;SDS011;673;48.098;14.422;2023-08-06T04:10:17;3.13;;;2.60;;
1358;SDS011;673;48.098;14.422;2023-08-06T04:12:44;2.37;;;2.27;;
1358;SDS011;673;48.098;14.422;2023-08-06T04:15:11;3.83;;;2.70;;
1358;SDS011;673;48.098;14.422;2023-08-06T04:17:38;2.20;;;2.00;;
1358;SDS011;673;48.098;14.422;2023-08-06T04:20:05;2.77;;;2.60;;
1358;SDS011;673;48.098;14.422;2023-08-06T04:22:33;1.70;;;1.47;;
1358;SDS011;673;48.098;14.422;2023-08-06T04:25:00;1.67;;;1.57;;
1358;SDS011;673;48.098;14.422;2023-08-06T04:27:28;2.13;;;1.90;;
1358;SDS011;673;48.098;14.422;2023-08-06T04:29:55;3.07;;;2.50;;
1358;SDS011;673;48.098;14.422;2023-08-06T04:32:22;1.40;;;1.30;;
1358;SDS011;673;48.098;14.422;2023-08-06T04:34:50;2.07;;;1.97;;
1358;SDS011;673;48.098;14.422;2023-08-06T04:37:17;2.40;;;2.27;;
1358;SDS011;673;48.098;14.422;2023-08-06T04:39:44;2.63;;;1.60;;
1358;SDS011;673;48.098;14.422;2023-08-06T04:42:11;1.40;;;1.30;;
1358;SDS011;673;48.098;14.422;2023-08-06T04:44:39;1.20;;;1.10;;
1358;SDS011;673;48.098;14.422;2023-08-06T04:47:06;6.40;;;1.50;;
1358;SDS011;673;48.098;14.422;2023-08-06T04:49:33;1.50;;;1.40;;
1358;SDS011;673;48.098;14.422;2023-08-06T04:52:00;1.27;;;1.17;;
1358;SDS011;673;48.098;14.422;2023-08-06T04:54:27;1.40;;;1.30;;
1358;SDS011;673;48.098;14.422;2023-08-06T04:56:54;1.50;;;1.40;;
1358;SDS011;673;48.098;14.422;2023-08-06T04:59:21;1.00;;;0.80;;
1358;SDS011;673;48.098;14.422;2023-08-06T05:01:49;1.73;;;1.63;;
1358;SDS011;673;48.098;14.422;2023-08-06T05:04:16;1.03;;;1.03;;
1358;SDS011;673;48.098;14.422;2023-08-06T05:06:43;1.10;;;1.00;;
1358;SDS011;673;48.098;14.422;2023-08-06T05:09:10;1.20;;;1.10;;
1358;SDS011;673;48.098;14.422;2023-08-06T05:11:37;1.43;;;1.20;;
1358;SDS011;673;48.098;14.422;2023-08-06T05:14:04;1.53;;;1.00;;
1358;SDS011;673;48.098;14.422;2023-08-06T05:16:31;1.40;;;1.30;;
1358;SDS011;673;48.098;14.422;2023-08-06T05:18:59;2.10;;;1.13;;
1358;SDS011;673;48.098;14.422;2023-08-06T05:21:26;1.00;;;0.90;;
1358;SDS011;673;48.098;14.422;2023-08-06T05:23:53;0.80;;;0.80;;
1358;SDS011;673;48.098;14.422;2023-08-06T05:26:20;1.23;;;1.13;;
1358;SDS011;673;48.098;14.422;2023-08-06T05:28:47;2.13;;;1.97;;
1358;SDS011;673;48.098;14.422;2023-08-06T05:31:14;2.00;;;1.30;;
1358;SDS011;673;48.098;14.422;2023-08-06T05:33:41;3.10;;;1.03;;
1358;SDS011;673;48.098;14.422;2023-08-06T05:36:09;2.00;;;1.27;;
1358;SDS011;673;48.098;14.422;2023-08-06T05:38:36;1.60;;;1.50;;
1358;SDS011;673;48.098;14.422;2023-08-06T05:41:03;1.20;;;1.10;;
1358;SDS011;673;48.098;14.422;2023-08-06T05:43:30;1.63;;;1.53;;
1358;SDS011;673;48.098;14.422;2023-08-06T05:45:57;2.53;;;1.40;;
1358;SDS011;673;48.098;14.422;2023-08-06T05:48:24;1.30;;;1.20;;
1358;SDS011;673;48.098;14.422;2023-08-06T05:50:53;3.23;;;2.40;;
1358;SDS011;673;48.098;14.422;2023-08-06T05:53:21;1.27;;;1.17;;
1358;SDS011;673;48.098;14.422;2023-08-06T05:55:48;1.47;;;1.27;;
1358;SDS011;673;48.098;14.422;2023-08-06T05:58:15;2.77;;;1.17;;
1358;SDS011;673;48.098;14.422;2023-08-06T06:00:42;1.47;;;1.20;;
1358;SDS011;673;48.098;14.422;2023-08-06T06:03:09;1.17;;;1.07;;
1358;SDS011;673;48.098;14.422;2023-08-06T06:05:37;2.30;;;2.10;;
1358;SDS011;673;48.098;14.422;2023-08-06T06:08:05;1.40;;;1.30;;
1358;SDS011;673;48.098;14.422;2023-08-06T06:10:33;1.20;;;1.10;;
1358;SDS011;673;48.098;14.422;2023-08-06T06:13:01;1.87;;;1.77;;
1358;SDS011;673;48.098;14.422;2023-08-06T06:15:28;1.73;;;1.63;;
1358;SDS011;673;48.098;14.422;2023-08-06T06:17:54;1.57;;;1.47;;
1358;SDS011;673;48.098;14.422;2023-08-06T06:20:22;2.33;;;1.80;;
1358;SDS011;673;48.098;14.422;2023-08-06T06:22:49;1.23;;;1.13;;
1358;SDS011;673;48.098;14.422;2023-08-06T06:25:16;2.30;;;1.97;;
1358;SDS011;673;48.098;14.422;2023-08-06T06:27:45;2.50;;;2.30;;
1358;SDS011;673;48.098;14.422;2023-08-06T06:30:12;1.57;;;1.30;;
1358;SDS011;673;48.098;14.422;2023-08-06T06:32:39;1.60;;;1.50;;
1358;SDS011;673;48.098;14.422;2023-08-06T06:35:07;1.77;;;1.67;;
1358;SDS011;673;48.098;14.422;2023-08-06T06:37:34;1.93;;;1.77;;
1358;SDS011;673;48.098;14.422;2023-08-06T06:40:01;1.30;;;1.20;;
1358;SDS011;673;48.098;14.422;2023-08-06T06:42:28;2.30;;;2.20;;
1358;SDS011;673;48.098;14.422;2023-08-06T06:44:56;2.60;;;1.50;;
1358;SDS011;673;48.098;14.422;2023-08-06T06:47:23;2.17;;;1.97;;
1358;SDS011;673;48.098;14.422;2023-08-06T06:49:50;1.90;;;1.80;;
1358;SDS011;673;48.098;14.422;2023-08-06T06:52:16;2.40;;;2.20;;
1358;SDS011;673;48.098;14.422;2023-08-06T06:54:43;2.33;;;2.23;;
1358;SDS011;673;48.098;14.422;2023-08-06T06:57:10;4.20;;;2.03;;
1358;SDS011;673;48.098;14.422;2023-08-06T06:59:37;2.70;;;2.50;;
1358;SDS011;673;48.098;14.422;2023-08-06T07:02:06;1.87;;;1.67;;
1358;SDS011;673;48.098;14.422;2023-08-06T07:04:33;2.53;;;2.00;;
1358;SDS011;673;48.098;14.422;2023-08-06T07:07:00;1.70;;;1.60;;
1358;SDS011;673;48.098;14.422;2023-08-06T07:09:27;1.70;;;1.60;;
1358;SDS011;673;48.098;14.422;2023-08-06T07:11:54;1.80;;;1.70;;
1358;SDS011;673;48.098;14.422;2023-08-06T07:14:21;4.13;;;1.90;;
1358;SDS011;673;48.098;14.422;2023-08-06T07:16:49;1.73;;;1.63;;
1358;SDS011;673;48.098;14.422;2023-08-06T07:19:17;3.07;;;1.70;;
1358;SDS011;673;48.098;14.422;2023-08-06T07:21:44;1.80;;;1.70;;
1358;SDS011;673;48.098;14.422;2023-08-06T07:24:11;2.00;;;1.40;;
1358;SDS011;673;48.098;14.422;2023-08-06T07:26:38;1.50;;;1.40;;
1358;SDS011;673;48.098;14.422;2023-08-06T07:29:05;1.97;;;1.87;;
1358;SDS011;673;48.098;14.422;2023-08-06T07:31:32;2.27;;;2.17;;
1358;SDS011;673;48.098;14.422;2023-08-06T07:33:59;3.30;;;1.93;;
1358;SDS011;673;48.098;14.422;2023-08-06T07:36:27;1.67;;;1.57;;
1358;SDS011;673;48.098;14.422;2023-08-06T07:38:54;2.23;;;1.83;;
1358;SDS011;673;48.098;14.422;2023-08-06T07:41:22;1.70;;;1.60;;
1358;SDS011;673;48.098;14.422;2023-08-06T07:43:48;2.30;;;1.73;;
1358;SDS011;673;48.098;14.422;2023-08-06T07:46:15;2.20;;;2.07;;
1358;SDS011;673;48.098;14.422;2023-08-06T07:48:42;1.63;;;1.53;;
1358;SDS011;673;48.098;14.422;2023-08-06T07:51:09;1.30;;;1.20;;
1358;SDS011;673;48.098;14.422;2023-08-06T07:53:38;1.20;;;1.03;;
1358;SDS011;673;48.098;14.422;2023-08-06T07:56:05;3.10;;;1.83;;
1358;SDS011;673;48.098;14.422;2023-08-06T07:58:31;1.63;;;1.07;;
1358;SDS011;673;48.098;14.422;2023-08-06T08:00:58;1.90;;;1.77;;
1358;SDS011;673;48.098;14.422;2023-08-06T08:03:25;1.77;;;1.50;;
1358;SDS011;673;48.098;14.422;2023-08-06T08:05:54;2.77;;;1.93;;
1358;SDS011;673;48.098;14.422;2023-08-06T08:08:23;1.97;;;1.77;;
1358;SDS011;673;48.098;14.422;2023-08-06T08:10:52;1.80;;;1.70;;
1358;SDS011;673;48.098;14.422;2023-08-06T08:13:20;2.70;;;1.77;;
1358;SDS011;673;48.098;14.422;2023-08-06T08:15:47;2.97;;;2.30;;
1358;SDS011;673;48.098;14.422;2023-08-06T08:18:14;1.20;;;1.10;;
1358;SDS011;673;48.098;14.422;2023-08-06T08:20:41;0.70;;;0.70;;
1358;SDS011;673;48.098;14.422;2023-08-06T08:23:08;1.10;;;1.00;;
1358;SDS011;673;48.098;14.422;2023-08-06T08:25:35;1.20;;;1.10;;
1358;SDS011;673;48.098;14.422;2023-08-06T08:28:03;1.20;;;1.10;;
1358;SDS011;673;48.098;14.422;2023-08-06T08:30:30;1.67;;;1.57;;
1358;SDS011;673;48.098;14.422;2023-08-06T08:32:57;1.00;;;1.00;;
1358;SDS011;673;48.098;14.422;2023-08-06T08:35:24;1.17;;;0.83;;
1358;SDS011;673;48.098;14.422;2023-08-06T08:37:51;0.73;;;0.73;;
1358;SDS011;673;48.098;14.422;2023-08-06T08:40:19;1.33;;;0.70;;
1358;SDS011;673;48.098;14.422;2023-08-06T08:42:49;0.63;;;0.63;;
1358;SDS011;673;48.098;14.422;2023-08-06T08:45:18;2.17;;;0.70;;
1358;SDS011;673;48.098;14.422;2023-08-06T08:47:48;2.13;;;1.07;;
1358;SDS011;673;48.098;14.422;2023-08-06T08:50:15;2.53;;;1.10;;
1358;SDS011;673;48.098;14.422;2023-08-06T08:52:44;1.43;;;1.33;;
1358;SDS011;673;48.098;14.422;2023-08-06T08:55:14;1.97;;;1.00;;
1358;SDS011;673;48.098;14.422;2023-08-06T08:57:41;1.37;;;1.27;;
1358;SDS011;673;48.098;14.422;2023-08-06T09:00:09;1.50;;;1.40;;
1358;SDS011;673;48.098;14.422;2023-08-06T09:02:38;0.93;;;0.93;;
1358;SDS011;673;48.098;14.422;2023-08-06T09:05:06;1.67;;;1.57;;
1358;SDS011;673;48.098;14.422;2023-08-06T09:07:35;2.30;;;1.73;;
1358;SDS011;673;48.098;14.422;2023-08-06T09:10:07;1.93;;;1.83;;
1358;SDS011;673;48.098;14.422;2023-08-06T09:12:38;2.30;;;2.10;;
1358;SDS011;673;48.098;14.422;2023-08-06T09:15:06;2.60;;;2.50;;
1358;SDS011;673;48.098;14.422;2023-08-06T09:17:33;3.50;;;3.30;;
1358;SDS011;673;48.098;14.422;2023-08-06T09:20:09;9.23;;;7.40;;
1358;SDS011;673;48.098;14.422;2023-08-06T09:22:37;3.50;;;3.20;;
1358;SDS011;673;48.098;14.422;2023-08-06T09:25:05;3.03;;;2.13;;
1358;SDS011;673;48.098;14.422;2023-08-06T09:27:35;1.67;;;1.57;;
1358;SDS011;673;48.098;14.422;2023-08-06T09:30:03;2.30;;;1.87;;
1358;SDS011;673;48.098;14.422;2023-08-06T09:32:41;2.90;;;1.83;;
1358;SDS011;673;48.098;14.422;2023-08-06T09:35:16;2.20;;;2.00;;
1358;SDS011;673;48.098;14.422;2023-08-06T09:37:43;2.27;;;1.60;;
1358;SDS011;673;48.098;14.422;2023-08-06T09:40:24;2.77;;;2.57;;
1358;SDS011;673;48.098;14.422;2023-08-06T09:42:52;3.77;;;3.47;;
1358;SDS011;673;48.098;14.422;2023-08-06T09:45:19;3.47;;;3.23;;
1358;SDS011;673;48.098;14.422;2023-08-06T09:47:47;2.23;;;2.00;;
1358;SDS011;673;48.098;14.422;2023-08-06T09:50:16;2.57;;;2.20;;
1358;SDS011;673;48.098;14.422;2023-08-06T09:52:46;2.70;;;2.53;;
1358;SDS011;673;48.098;14.422;2023-08-06T09:55:14;2.87;;;2.67;;
1358;SDS011;673;48.098;14.422;2023-08-06T09:57:41;2.87;;;2.53;;
1358;SDS011;673;48.098;14.422;2023-08-06T10:00:09;6.93;;;4.17;;
1358;SDS011;673;48.098;14.422;2023-08-06T10:02:38;6.70;;;6.00;;
1358;SDS011;673;48.098;14.422;2023-08-06T10:05:05;2.77;;;2.53;;
1358;SDS011;673;48.098;14.422;2023-08-06T10:07:35;3.13;;;2.80;;
1358;SDS011;673;48.098;14.422;2023-08-06T10:10:04;11.00;;;7.20;;
1358;SDS011;673;48.098;14.422;2023-08-06T10:12:32;4.70;;;3.70;;
1358;SDS011;673;48.098;14.422;2023-08-06T10:15:03;2.37;;;2.17;;
1358;SDS011;673;48.098;14.422;2023-08-06T10:17:34;1.53;;;1.43;;
1358;SDS011;673;48.098;14.422;2023-08-06T10:20:03;1.00;;;0.73;;
1358;SDS011;673;48.098;14.422;2023-08-06T10:22:32;1.67;;;1.20;;
1358;SDS011;673;48.098;14.422;2023-08-06T10:25:03;2.83;;;1.70;;
1358;SDS011;673;48.098;14.422;2023-08-06T10:27:31;1.43;;;0.90;;
1358;SDS011;673;48.098;14.422;2023-08-06T10:32:49;0.50;;;0.50;;
1358;SDS011;673;48.098;14.422;2023-08-06T10:35:30;0.80;;;0.50;;
1358;SDS011;673;48.098;14.422;2023-08-06T10:38:00;3.63;;;0.80;;
1358;SDS011;673;48.098;14.422;2023-08-06T10:40:30;0.97;;;0.70;;
1358;SDS011;673;48.098;14.422;2023-08-06T10:42:59;0.50;;;0.50;;
1358;SDS011;673;48.098;14.422;2023-08-06T10:45:27;0.60;;;0.50;;
1358;SDS011;673;48.098;14.422;2023-08-06T10:47:55;1.87;;;0.70;;
1358;SDS011;673;48.098;14.422;2023-08-06T10:50:23;0.80;;;0.53;;
1358;SDS011;673;48.098;14.422;2023-08-06T10:52:51;0.70;;;0.47;;
1358;SDS011;673;48.098;14.422;2023-08-06T10:55:23;0.70;;;0.63;;
1358;SDS011;673;48.098;14.422;2023-08-06T10:57:51;0.77;;;0.50;;
1358;SDS011;673;48.098;14.422;2023-08-06T11:00:20;0.60;;;0.50;;
1358;SDS011;673;48.098;14.422;2023-08-06T11:02:47;0.53;;;0.40;;
1358;SDS011;673;48.098;14.422;2023-08-06T11:05:15;1.93;;;0.50;;
1358;SDS011;673;48.098;14.422;2023-08-06T11:07:43;1.30;;;0.50;;
1358;SDS011;673;48.098;14.422;2023-08-06T11:10:13;1.27;;;0.60;;
1358;SDS011;673;48.098;14.422;2023-08-06T11:12:41;0.50;;;0.40;;
1358;SDS011;673;48.098;14.422;2023-08-06T11:15:09;0.50;;;0.40;;
1358;SDS011;673;48.098;14.422;2023-08-06T11:17:36;1.63;;;0.40;;
1358;SDS011;673;48.098;14.422;2023-08-06T11:20:05;0.70;;;0.50;;
1358;SDS011;673;48.098;14.422;2023-08-06T11:22:33;0.50;;;0.40;;
1358;SDS011;673;48.098;14.422;2023-08-06T11:25:01;0.50;;;0.43;;
1358;SDS011;673;48.098;14.422;2023-08-06T11:27:28;0.50;;;0.40;;
1358;SDS011;673;48.098;14.422;2023-08-06T11:29:57;0.50;;;0.40;;
1358;SDS011;673;48.098;14.422;2023-08-06T11:32:24;0.60;;;0.40;;
1358;SDS011;673;48.098;14.422;2023-08-06T11:34:52;0.50;;;0.40;;
1358;SDS011;673;48.098;14.422;2023-08-06T11:37:21;0.53;;;0.40;;
1358;SDS011;673;48.098;14.422;2023-08-06T11:39:49;0.60;;;0.30;;
1358;SDS011;673;48.098;14.422;2023-08-06T11:42:16;2.73;;;0.73;;
1358;SDS011;673;48.098;14.422;2023-08-06T11:44:43;0.93;;;0.40;;
1358;SDS011;673;48.098;14.422;2023-08-06T11:47:13;2.17;;;0.50;;
1358;SDS011;673;48.098;14.422;2023-08-06T11:49:42;0.50;;;0.33;;
1358;SDS011;673;48.098;14.422;2023-08-06T11:52:12;0.70;;;0.40;;
1358;SDS011;673;48.098;14.422;2023-08-06T11:54:40;0.60;;;0.40;;
1358;SDS011;673;48.098;14.422;2023-08-06T11:57:07;0.50;;;0.40;;
1358;SDS011;673;48.098;14.422;2023-08-06T11:59:36;5.20;;;0.40;;
1358;SDS011;673;48.098;14.422;2023-08-06T12:02:04;0.73;;;0.40;;
1358;SDS011;673;48.098;14.422;2023-08-06T12:07:28;0.40;;;0.30;;
1358;SDS011;673;48.098;14.422;2023-08-06T12:09:56;0.40;;;0.30;;
1358;SDS011;673;48.098;14.422;2023-08-06T12:12:23;0.40;;;0.30;;
1358;SDS011;673;48.098;14.422;2023-08-06T12:14:50;0.70;;;0.40;;
1358;SDS011;673;48.098;14.422;2023-08-06T12:17:17;0.40;;;0.30;;
1358;SDS011;673;48.098;14.422;2023-08-06T12:19:44;0.87;;;0.30;;
1358;SDS011;673;48.098;14.422;2023-08-06T12:22:14;0.60;;;0.30;;
1358;SDS011;673;48.098;14.422;2023-08-06T12:24:41;0.40;;;0.30;;
1358;SDS011;673;48.098;14.422;2023-08-06T12:27:08;1.17;;;0.30;;
1358;SDS011;673;48.098;14.422;2023-08-06T12:29:35;0.70;;;0.30;;
1358;SDS011;673;48.098;14.422;2023-08-06T12:32:03;0.50;;;0.30;;
1358;SDS011;673;48.098;14.422;2023-08-06T12:34:31;1.00;;;0.37;;
1358;SDS011;673;48.098;14.422;2023-08-06T12:36:58;1.40;;;0.33;;
1358;SDS011;673;48.098;14.422;2023-08-06T12:39:26;0.60;;;0.40;;
1358;SDS011;673;48.098;14.422;2023-08-06T12:41:54;0.30;;;0.20;;
1358;SDS011;673;48.098;14.422;2023-08-06T12:44:22;0.50;;;0.30;;
1358;SDS011;673;48.098;14.422;2023-08-06T12:46:49;0.43;;;0.27;;
1358;SDS011;673;48.098;14.422;2023-08-06T12:49:16;2.10;;;0.50;;
1358;SDS011;673;48.098;14.422;2023-08-06T12:51:43;0.47;;;0.27;;
1358;SDS011;673;48.098;14.422;2023-08-06T12:54:10;1.60;;;0.30;;
1358;SDS011;673;48.098;14.422;2023-08-06T12:56:39;0.40;;;0.20;;
1358;SDS011;673;48.098;14.422;2023-08-06T12:59:05;0.47;;;0.30;;
1358;SDS011;673;48.098;14.422;2023-08-06T13:01:32;0.30;;;0.20;;
1358;SDS011;673;48.098;14.422;2023-08-06T13:03:59;2.37;;;0.30;;
1358;SDS011;673;48.098;14.422;2023-08-06T13:06:26;0.50;;;0.30;;
1358;SDS011;673;48.098;14.422;2023-08-06T13:08:53;0.40;;;0.30;;
1358;SDS011;673;48.098;14.422;2023-08-06T13:11:20;0.40;;;0.20;;
1358;SDS011;673;48.098;14.422;2023-08-06T13:13:49;1.07;;;0.20;;
1358;SDS011;673;48.098;14.422;2023-08-06T13:16:15;0.40;;;0.30;;
1358;SDS011;673;48.098;14.422;2023-08-06T13:18:42;0.40;;;0.30;;
1358;SDS011;673;48.098;14.422;2023-08-06T13:21:09;0.40;;;0.30;;
1358;SDS011;673;48.098;14.422;2023-08-06T13:23:36;0.63;;;0.20;;
1358;SDS011;673;48.098;14.422;2023-08-06T13:26:03;1.23;;;0.20;;
1358;SDS011;673;48.098;14.422;2023-08-06T13:28:30;0.37;;;0.23;;
1358;SDS011;673;48.098;14.422;2023-08-06T13:30:58;1.23;;;0.30;;
1358;SDS011;673;48.098;14.422;2023-08-06T13:33:25;0.50;;;0.30;;
1358;SDS011;673;48.098;14.422;2023-08-06T13:35:52;0.40;;;0.20;;
1358;SDS011;673;48.098;14.422;2023-08-06T13:38:19;0.80;;;0.20;;
1358;SDS011;673;48.098;14.422;2023-08-06T13:40:46;0.40;;;0.20;;
1358;SDS011;673;48.098;14.422;2023-08-06T13:43:14;0.50;;;0.30;;
1358;SDS011;673;48.098;14.422;2023-08-06T13:45:44;0.40;;;0.30;;
1358;SDS011;673;48.098;14.422;2023-08-06T13:48:12;0.40;;;0.30;;
1358;SDS011;673;48.098;14.422;2023-08-06T13:50:39;0.40;;;0.30;;
1358;SDS011;673;48.098;14.422;2023-08-06T13:53:06;0.50;;;0.30;;
1358;SDS011;673;48.098;14.422;2023-08-06T13:55:33;0.37;;;0.20;;
1358;SDS011;673;48.098;14.422;2023-08-06T13:58:00;0.33;;;0.30;;
1358;SDS011;673;48.098;14.422;2023-08-06T14:00:27;0.40;;;0.30;;
1358;SDS011;673;48.098;14.422;2023-08-06T14:02:54;0.37;;;0.27;;
1358;SDS011;673;48.098;14.422;2023-08-06T14:05:22;0.30;;;0.20;;
1358;SDS011;673;48.098;14.422;2023-08-06T14:07:49;0.40;;;0.20;;
1358;SDS011;673;48.098;14.422;2023-08-06T14:10:16;0.40;;;0.30;;
1358;SDS011;673;48.098;14.422;2023-08-06T14:12:43;2.73;;;0.30;;
1358;SDS011;673;48.098;14.422;2023-08-06T14:15:10;0.40;;;0.30;;
1358;SDS011;673;48.098;14.422;2023-08-06T14:17:38;0.37;;;0.27;;
1358;SDS011;673;48.098;14.422;2023-08-06T14:20:05;2.00;;;0.30;;
1358;SDS011;673;48.098;14.422;2023-08-06T14:22:38;0.40;;;0.30;;
1358;SDS011;673;48.098;14.422;2023-08-06T14:25:05;0.40;;;0.23;;
1358;SDS011;673;48.098;14.422;2023-08-06T14:27:32;0.40;;;0.30;;
1358;SDS011;673;48.098;14.422;2023-08-06T14:30:00;0.40;;;0.20;;
1358;SDS011;673;48.098;14.422;2023-08-06T14:32:28;0.40;;;0.20;;
1358;SDS011;673;48.098;14.422;2023-08-06T14:34:55;0.30;;;0.20;;
1358;SDS011;673;48.098;14.422;2023-08-06T14:37:22;1.00;;;0.30;;
1358;SDS011;673;48.098;14.422;2023-08-06T14:39:51;1.03;;;0.23;;
1358;SDS011;673;48.098;14.422;2023-08-06T14:42:17;0.70;;;0.20;;
1358;SDS011;673;48.098;14.422;2023-08-06T14:44:45;1.90;;;0.20;;
1358;SDS011;673;48.098;14.422;2023-08-06T14:47:11;0.40;;;0.23;;
1358;SDS011;673;48.098;14.422;2023-08-06T14:49:38;0.30;;;0.20;;
1358;SDS011;673;48.098;14.422;2023-08-06T14:52:06;2.83;;;0.30;;
1358;SDS011;673;48.098;14.422;2023-08-06T14:54:33;0.40;;;0.20;;
1358;SDS011;673;48.098;14.422;2023-08-06T14:57:01;1.43;;;0.20;;
1358;SDS011;673;48.098;14.422;2023-08-06T14:59:28;2.03;;;1.93;;
1358;SDS011;673;48.098;14.422;2023-08-06T15:01:55;1.07;;;0.20;;
1358;SDS011;673;48.098;14.422;2023-08-06T15:04:22;0.30;;;0.20;;
1358;SDS011;673;48.098;14.422;2023-08-06T15:06:49;0.40;;;0.20;;
1358;SDS011;673;48.098;14.422;2023-08-06T15:09:16;0.40;;;0.20;;
1358;SDS011;673;48.098;14.422;2023-08-06T15:11:43;0.40;;;0.23;;
1358;SDS011;673;48.098;14.422;2023-08-06T15:14:11;0.30;;;0.20;;
1358;SDS011;673;48.098;14.422;2023-08-06T15:16:39;0.30;;;0.20;;
1358;SDS011;673;48.098;14.422;2023-08-06T15:19:06;2.00;;;0.30;;
1358;SDS011;673;48.098;14.422;2023-08-06T15:21:33;0.40;;;0.20;;
1358;SDS011;673;48.098;14.422;2023-08-06T15:24:00;0.40;;;0.30;;